Time;durP1;ratioP1;P1;durP2;ratioP2;P2;SDS_P1;SDS_P2;PMS_P1;PMS_P2;Temp;Humidity;BMP_temperature;BMP_pressure;BME280_temperature;BME280_humidity;BME280_pressure;Samples;Min_cycle;Max_cycle;Signal;HPM_P1;HPM_P2
2021/08/14 00:01:16;;;;;;;11.87;3.33;;;16.10;99.90;;;;;;5090375;28;20234;-77
2021/08/14 00:03:43;;;;;;;15.40;3.77;;;16.00;99.90;;;;;;5088268;28;20572;-78
2021/08/14 00:06:11;;;;;;;13.90;3.20;;;16.10;99.90;;;;;;5090015;28;20238;-77
2021/08/14 00:08:38;;;;;;;13.10;3.60;;;16.00;99.90;;;;;;5089876;28;20191;-77
2021/08/14 00:11:06;;;;;;;13.13;3.23;;;16.00;99.90;;;;;;5089588;28;20298;-78
2021/08/14 00:13:33;;;;;;;21.33;3.67;;;15.90;99.90;;;;;;5088993;28;20227;-77
2021/08/14 00:16:00;;;;;;;12.17;3.40;;;16.00;99.90;;;;;;5088414;28;20231;-78
2021/08/14 00:18:28;;;;;;;16.57;3.83;;;16.00;99.90;;;;;;5090020;28;20649;-78
2021/08/14 00:20:55;;;;;;;12.13;3.70;;;15.90;99.90;;;;;;5087607;28;20262;-78
2021/08/14 00:23:22;;;;;;;15.67;3.57;;;15.90;99.90;;;;;;5087560;28;20202;-77
2021/08/14 00:25:49;;;;;;;14.50;4.10;;;15.90;99.90;;;;;;5088656;28;20242;-80
2021/08/14 00:28:18;;;;;;;16.37;3.63;;;15.90;99.90;;;;;;5088112;28;20202;-80
2021/08/14 00:30:44;;;;;;;15.53;3.37;;;15.90;99.90;;;;;;5087937;28;20203;-77
2021/08/14 00:33:11;;;;;;;15.10;3.80;;;15.90;99.90;;;;;;5087593;28;20272;-82
2021/08/14 00:35:38;;;;;;;11.70;3.50;;;15.90;99.90;;;;;;5086569;28;20290;-77
2021/08/14 00:38:05;;;;;;;21.10;3.70;;;16.00;99.90;;;;;;5085864;28;20664;-78
2021/08/14 00:40:32;;;;;;;16.23;3.43;;;15.80;99.90;;;;;;5088156;28;20325;-79
2021/08/14 00:42:59;;;;;;;15.57;3.50;;;15.80;99.90;;;;;;5087475;28;20314;-78
2021/08/14 00:45:28;;;;;;;11.13;3.30;;;15.70;99.90;;;;;;5088730;28;20218;-77
2021/08/14 00:47:54;;;;;;;13.47;3.23;;;15.70;99.90;;;;;;5087564;28;20237;-78
2021/08/14 00:50:21;;;;;;;16.47;3.23;;;15.60;99.90;;;;;;5088020;28;20230;-77
2021/08/14 00:52:48;;;;;;;19.73;3.73;;;15.60;99.90;;;;;;5088234;28;20221;-80
2021/08/14 00:55:15;;;;;;;17.60;4.43;;;15.60;99.90;;;;;;5088437;28;20203;-77
2021/08/14 00:57:43;;;;;;;21.23;4.50;;;15.50;99.90;;;;;;5088176;28;20732;-78
2021/08/14 01:00:11;;;;;;;13.47;4.20;;;15.60;99.90;;;;;;5088273;28;20641;-78
2021/08/14 01:02:39;;;;;;;15.00;3.30;;;15.60;99.90;;;;;;5087613;28;20728;-79
2021/08/14 01:05:07;;;;;;;14.50;3.63;;;15.50;99.90;;;;;;5088883;28;20541;-79
2021/08/14 01:07:34;;;;;;;14.37;3.23;;;15.60;99.90;;;;;;5089031;28;20277;-78
2021/08/14 01:10:01;;;;;;;16.80;3.57;;;15.50;99.90;;;;;;5089449;28;20277;-81
2021/08/14 01:12:28;;;;;;;16.03;3.50;;;15.50;99.90;;;;;;5087915;28;20297;-79
2021/08/14 01:14:54;;;;;;;14.10;3.60;;;15.50;99.90;;;;;;5087357;28;20233;-78
2021/08/14 01:17:22;;;;;;;13.23;3.67;;;15.50;99.90;;;;;;5087082;28;20206;-80
2021/08/14 01:19:50;;;;;;;14.93;3.37;;;15.40;99.90;;;;;;5087156;28;20207;-78
2021/08/14 01:22:17;;;;;;;16.17;4.03;;;15.40;99.90;;;;;;5088655;28;20277;-81
2021/08/14 01:24:45;;;;;;;15.53;3.80;;;15.30;99.90;;;;;;5087942;28;20234;-79
2021/08/14 01:27:14;;;;;;;16.83;3.40;;;15.30;99.90;;;;;;5087219;28;20226;-80
2021/08/14 01:29:41;;;;;;;12.63;3.30;;;15.20;99.90;;;;;;5087760;28;20203;-78
2021/08/14 01:32:09;;;;;;;11.70;3.70;;;15.10;99.90;;;;;;5087809;28;20333;-80
2021/08/14 01:34:37;;;;;;;10.77;3.87;;;15.10;99.90;;;;;;5087533;28;20230;-79
2021/08/14 01:37:05;;;;;;;14.03;3.57;;;15.00;99.90;;;;;;5088228;28;20282;-79
2021/08/14 01:39:32;;;;;;;20.10;4.30;;;15.10;99.90;;;;;;5087658;28;20297;-77
2021/08/14 01:42:01;;;;;;;12.30;3.63;;;15.10;99.90;;;;;;5087054;28;20282;-79
2021/08/14 01:44:31;;;;;;;14.27;3.90;;;15.00;99.90;;;;;;5086675;28;20569;-76
2021/08/14 01:46:59;;;;;;;10.07;3.57;;;15.00;99.90;;;;;;5087249;28;20279;-80
2021/08/14 01:49:26;;;;;;;14.50;3.60;;;15.00;99.90;;;;;;5085368;28;20206;-77
2021/08/14 01:51:54;;;;;;;13.43;3.70;;;15.00;99.90;;;;;;5087856;28;20209;-77
2021/08/14 01:54:21;;;;;;;18.73;4.00;;;15.00;99.90;;;;;;5086345;28;20233;-78
2021/08/14 01:56:50;;;;;;;17.37;3.83;;;14.90;99.90;;;;;;5087853;28;20191;-77
2021/08/14 01:59:17;;;;;;;16.43;3.97;;;14.90;99.90;;;;;;5089929;28;20202;-76
2021/08/14 02:01:45;;;;;;;13.50;3.40;;;14.80;99.90;;;;;;5090337;28;20190;-79
2021/08/14 02:04:12;;;;;;;15.73;3.87;;;14.90;99.90;;;;;;5089313;28;20203;-78
2021/08/14 02:06:39;;;;;;;14.27;4.07;;;14.80;99.90;;;;;;5089957;28;20861;-76
2021/08/14 02:09:06;;;;;;;12.17;3.70;;;14.90;99.90;;;;;;5090412;28;20206;-78
2021/08/14 02:11:35;;;;;;;19.87;3.67;;;14.90;99.90;;;;;;5089559;28;20329;-79
2021/08/14 02:14:03;;;;;;;19.40;3.60;;;14.80;99.90;;;;;;5090262;28;20560;-78
2021/08/14 02:16:30;;;;;;;15.33;3.70;;;14.80;99.90;;;;;;5090943;28;20294;-79
2021/08/14 02:18:59;;;;;;;20.67;4.20;;;14.70;99.90;;;;;;5090479;28;20802;-80
2021/08/14 02:21:26;;;;;;;15.73;3.77;;;14.60;99.90;;;;;;5089055;28;20404;-76
2021/08/14 02:23:52;;;;;;;12.77;4.07;;;14.60;99.90;;;;;;5089571;28;20222;-79
2021/08/14 02:26:19;;;;;;;14.67;4.03;;;14.50;99.90;;;;;;5088823;28;20290;-77
2021/08/14 02:28:46;;;;;;;18.50;4.60;;;14.50;99.90;;;;;;5091332;28;20206;-77
2021/08/14 02:31:14;;;;;;;15.20;4.03;;;14.50;99.90;;;;;;5090016;28;20206;-80
2021/08/14 02:33:41;;;;;;;14.50;4.60;;;14.40;99.90;;;;;;5090924;28;20307;-81
2021/08/14 02:36:11;;;;;;;16.43;3.90;;;14.40;99.90;;;;;;5090664;28;20294;-79
2021/08/14 02:38:39;;;;;;;19.33;4.37;;;14.50;99.90;;;;;;5088729;28;20215;-78
2021/08/14 02:41:07;;;;;;;16.70;3.97;;;14.50;99.90;;;;;;5088632;28;20208;-77
2021/08/14 02:43:35;;;;;;;18.67;4.93;;;14.50;99.90;;;;;;5090202;28;20676;-77
2021/08/14 02:46:02;;;;;;;16.87;3.93;;;14.50;99.90;;;;;;5089441;28;20289;-77
2021/08/14 02:48:29;;;;;;;15.53;4.03;;;14.50;99.90;;;;;;5093791;28;20651;-81
2021/08/14 02:50:56;;;;;;;16.20;3.97;;;14.50;99.90;;;;;;5089476;28;20713;-77
2021/08/14 02:53:24;;;;;;;18.33;4.43;;;14.40;99.90;;;;;;5090362;28;20290;-76
2021/08/14 02:55:51;;;;;;;15.67;4.50;;;14.40;99.90;;;;;;5091284;28;20567;-80
2021/08/14 02:58:19;;;;;;;17.87;4.53;;;14.40;99.90;;;;;;5089434;28;20195;-79
2021/08/14 03:00:46;;;;;;;17.30;4.17;;;14.40;99.90;;;;;;5092139;28;20199;-79
2021/08/14 03:03:13;;;;;;;21.60;4.47;;;14.30;99.90;;;;;;5091769;28;20575;-75
2021/08/14 03:05:40;;;;;;;15.77;4.20;;;14.30;99.90;;;;;;5090562;28;20206;-77
2021/08/14 03:08:10;;;;;;;15.93;4.60;;;14.40;99.90;;;;;;5094004;28;20201;-76
2021/08/14 03:10:40;;;;;;;15.27;4.20;;;14.30;99.90;;;;;;5091300;28;20191;-79
2021/08/14 03:13:07;;;;;;;16.27;3.80;;;14.30;99.90;;;;;;5090483;28;20614;-80
2021/08/14 03:15:34;;;;;;;14.60;4.30;;;14.40;99.90;;;;;;5090435;28;20309;-77
2021/08/14 03:18:01;;;;;;;21.53;4.97;;;14.40;99.90;;;;;;5090541;28;20207;-79
2021/08/14 03:20:29;;;;;;;13.97;4.10;;;14.40;99.90;;;;;;5089447;28;20683;-77
2021/08/14 03:22:56;;;;;;;13.53;4.17;;;14.40;99.90;;;;;;5091711;28;20210;-76
2021/08/14 03:25:23;;;;;;;18.83;4.30;;;14.40;99.90;;;;;;5091671;28;20265;-77
2021/08/14 03:27:51;;;;;;;19.63;4.57;;;14.30;99.90;;;;;;5094789;28;20521;-79
2021/08/14 03:30:18;;;;;;;16.43;4.10;;;14.40;99.90;;;;;;5096247;28;20199;-77
2021/08/14 03:32:46;;;;;;;11.03;4.07;;;14.40;99.90;;;;;;5091073;28;20198;-79
2021/08/14 03:35:13;;;;;;;12.77;4.17;;;14.40;99.90;;;;;;5092848;28;20734;-76
2021/08/14 03:37:41;;;;;;;17.07;4.33;;;14.40;99.90;;;;;;5089999;28;20209;-76
2021/08/14 03:40:10;;;;;;;19.40;4.87;;;14.50;99.90;;;;;;5090324;28;20682;-77
2021/08/14 03:42:37;;;;;;;19.17;4.87;;;14.50;99.90;;;;;;5089571;28;20199;-79
2021/08/14 03:45:06;;;;;;;16.43;3.77;;;14.50;99.90;;;;;;5091266;28;20847;-76
2021/08/14 03:47:33;;;;;;;15.63;4.00;;;14.50;99.90;;;;;;5089024;28;20287;-79
2021/08/14 03:50:00;;;;;;;22.93;5.07;;;14.50;99.90;;;;;;5090163;28;20277;-77
2021/08/14 03:52:27;;;;;;;15.90;4.30;;;14.50;99.90;;;;;;5087106;28;20871;-78
2021/08/14 03:54:54;;;;;;;15.53;4.27;;;14.50;99.90;;;;;;5097586;28;20230;-77
2021/08/14 03:57:20;;;;;;;20.20;4.50;;;14.40;99.90;;;;;;5088350;28;20237;-76
2021/08/14 03:59:47;;;;;;;15.37;4.37;;;14.40;99.90;;;;;;5090548;28;20297;-80
2021/08/14 04:02:16;;;;;;;12.37;4.03;;;14.40;99.90;;;;;;5089069;28;20231;-79
2021/08/14 04:04:43;;;;;;;13.70;4.53;;;14.40;99.90;;;;;;5090561;28;20637;-78
2021/08/14 04:07:09;;;;;;;13.37;4.30;;;14.40;99.90;;;;;;5088748;28;20206;-76
2021/08/14 04:09:36;;;;;;;22.73;4.63;;;14.40;99.90;;;;;;5090900;28;20290;-77
2021/08/14 04:12:04;;;;;;;17.63;5.43;;;14.50;99.90;;;;;;5093615;28;20667;-76
2021/08/14 04:14:31;;;;;;;16.17;4.37;;;14.50;99.90;;;;;;5090122;28;20238;-76
2021/08/14 04:16:57;;;;;;;21.37;4.77;;;14.40;99.90;;;;;;5090168;28;20253;-77
2021/08/14 04:19:26;;;;;;;21.97;5.03;;;14.50;99.90;;;;;;5093949;28;20204;-78
2021/08/14 04:21:52;;;;;;;16.53;4.23;;;14.50;99.90;;;;;;5092010;28;20636;-77
2021/08/14 04:24:19;;;;;;;21.30;5.00;;;14.40;99.90;;;;;;5101928;28;20193;-80
2021/08/14 04:26:46;;;;;;;20.87;5.93;;;14.40;99.90;;;;;;5101936;28;20202;-78
2021/08/14 04:29:13;;;;;;;20.00;4.80;;;14.50;99.90;;;;;;5090726;28;20740;-79
2021/08/14 04:31:40;;;;;;;15.00;4.60;;;14.60;99.90;;;;;;5112306;28;20281;-78
2021/08/14 04:34:07;;;;;;;12.57;4.23;;;14.50;99.90;;;;;;5098805;27;20633;-77
2021/08/14 04:36:36;;;;;;;18.10;4.63;;;14.50;99.90;;;;;;5090268;28;20694;-78
2021/08/14 04:39:03;;;;;;;17.47;4.40;;;14.60;99.90;;;;;;5089534;28;20287;-78
2021/08/14 04:41:30;;;;;;;18.80;4.77;;;14.60;99.90;;;;;;5088803;28;20203;-80
2021/08/14 04:43:57;;;;;;;17.20;4.87;;;14.60;99.90;;;;;;5090119;28;20202;-78
2021/08/14 04:46:23;;;;;;;19.77;4.50;;;14.70;99.90;;;;;;5092665;28;20203;-76
2021/08/14 04:48:50;;;;;;;14.80;4.33;;;14.70;99.90;;;;;;5089644;28;20285;-78
2021/08/14 04:51:17;;;;;;;18.50;5.03;;;14.70;99.90;;;;;;5096098;28;20230;-80
2021/08/14 04:53:45;;;;;;;18.90;5.07;;;14.70;99.90;;;;;;5091804;28;20206;-77
2021/08/14 04:56:12;;;;;;;22.50;4.87;;;14.70;99.90;;;;;;5102682;28;20228;-76
2021/08/14 04:58:39;;;;;;;11.80;4.13;;;14.70;99.90;;;;;;5094882;28;20194;-75
2021/08/14 05:01:06;;;;;;;15.53;4.53;;;14.70;99.90;;;;;;5093259;28;20622;-79
2021/08/14 05:03:33;;;;;;;21.57;4.87;;;14.90;99.90;;;;;;5091829;28;20274;-77
2021/08/14 05:06:00;;;;;;;19.80;5.10;;;15.00;99.90;;;;;;5091450;28;20216;-76
2021/08/14 05:08:27;;;;;;;27.23;5.87;;;15.10;99.90;;;;;;5090598;28;20235;-76
2021/08/14 05:10:55;;;;;;;19.50;5.27;;;15.20;99.90;;;;;;5088112;28;20285;-77
2021/08/14 05:13:22;;;;;;;17.83;5.20;;;15.20;99.90;;;;;;5086719;28;20227;-76
2021/08/14 05:15:49;;;;;;;19.27;5.33;;;15.50;99.90;;;;;;5087764;28;20310;-77
2021/08/14 05:18:17;;;;;;;21.73;4.70;;;15.90;99.90;;;;;;5086720;28;20667;-77
2021/08/14 05:20:44;;;;;;;17.87;5.00;;;16.60;99.90;;;;;;5086433;28;20194;-76
2021/08/14 05:23:11;;;;;;;17.03;5.73;;;17.50;99.90;;;;;;5087648;28;20653;-80
2021/08/14 05:25:38;;;;;;;19.07;5.00;;;18.40;99.90;;;;;;5089065;28;20218;-77
2021/08/14 05:28:07;;;;;;;20.93;6.03;;;19.30;99.90;;;;;;5090052;28;20199;-78
2021/08/14 05:30:34;;;;;;;16.80;4.50;;;20.30;99.90;;;;;;5087306;28;20675;-77
2021/08/14 05:33:01;;;;;;;11.17;4.43;;;21.00;99.90;;;;;;5085984;28;20293;-77
2021/08/14 05:35:27;;;;;;;16.80;4.70;;;21.80;99.90;;;;;;5090571;28;20302;-81
2021/08/14 05:37:54;;;;;;;11.70;4.57;;;22.30;99.90;;;;;;5090864;28;20717;-79
2021/08/14 05:40:21;;;;;;;18.35;5.18;;;22.60;99.90;;;;;;5091161;28;20649;-78
2021/08/14 05:42:48;;;;;;;15.45;4.55;;;22.70;99.90;;;;;;5090485;28;20206;-79
2021/08/14 05:45:16;;;;;;;17.17;5.22;;;22.30;99.90;;;;;;5090013;28;20227;-77
2021/08/14 05:47:43;;;;;;;14.33;4.90;;;21.50;99.90;;;;;;5091134;28;20225;-76
2021/08/14 05:50:11;;;;;;;13.20;5.00;;;20.70;99.90;;;;;;5091876;28;20252;-76
2021/08/14 05:52:38;;;;;;;19.80;5.50;;;20.20;99.90;;;;;;5091228;28;20202;-74
2021/08/14 05:55:05;;;;;;;20.77;5.07;;;19.60;99.90;;;;;;5093435;28;20300;-75
2021/08/14 05:57:32;;;;;;;23.30;5.00;;;18.90;99.90;;;;;;5092414;28;20277;-76
2021/08/14 05:59:59;;;;;;;18.60;5.03;;;18.40;99.90;;;;;;5088003;28;20282;-75
2021/08/14 06:02:27;;;;;;;21.97;5.27;;;18.10;99.90;;;;;;5083190;28;20196;-74
2021/08/14 06:04:54;;;;;;;21.40;4.90;;;17.90;99.90;;;;;;5084606;28;20749;-76
2021/08/14 06:07:21;;;;;;;23.30;5.80;;;17.70;99.90;;;;;;5088868;28;20624;-74
2021/08/14 06:09:48;;;;;;;23.10;4.70;;;17.50;99.90;;;;;;5091771;28;20203;-77
2021/08/14 06:12:14;;;;;;;20.37;4.67;;;17.40;99.90;;;;;;5091760;28;20282;-74
2021/08/14 06:14:42;;;;;;;18.93;5.17;;;17.30;99.90;;;;;;5088508;28;20211;-75
2021/08/14 06:17:08;;;;;;;22.07;5.27;;;17.20;99.90;;;;;;5089773;28;20194;-74
2021/08/14 06:19:37;;;;;;;11.77;4.27;;;17.20;99.90;;;;;;5090969;28;20229;-75
2021/08/14 06:22:05;;;;;;;23.57;4.73;;;17.20;99.90;;;;;;5090912;28;20276;-77
2021/08/14 06:24:32;;;;;;;18.63;4.97;;;17.10;99.90;;;;;;5090054;28;20286;-77
2021/08/14 06:26:59;;;;;;;16.77;4.83;;;17.10;99.90;;;;;;5091370;28;20203;-77
2021/08/14 06:29:25;;;;;;;17.77;5.30;;;17.10;99.90;;;;;;5091830;28;20225;-75
2021/08/14 06:31:52;;;;;;;19.23;5.03;;;17.20;99.90;;;;;;5090536;28;20218;-78
2021/08/14 06:34:19;;;;;;;13.47;4.80;;;17.30;99.90;;;;;;5090571;28;20326;-75
2021/08/14 06:36:48;;;;;;;15.87;4.43;;;17.40;99.90;;;;;;5090868;28;20254;-75
2021/08/14 06:39:15;;;;;;;16.60;4.60;;;17.40;99.90;;;;;;5091594;28;20191;-75
2021/08/14 06:41:42;;;;;;;18.87;5.13;;;17.40;99.90;;;;;;5091363;28;20297;-75
2021/08/14 06:44:09;;;;;;;16.40;4.70;;;17.50;99.90;;;;;;5089689;28;20281;-75
2021/08/14 06:46:35;;;;;;;15.60;4.73;;;17.50;99.90;;;;;;5091079;28;20642;-76
2021/08/14 06:49:03;;;;;;;20.90;5.20;;;17.50;99.90;;;;;;5091601;28;20285;-76
2021/08/14 06:51:30;;;;;;;13.13;4.57;;;17.50;99.90;;;;;;5090668;28;20191;-75
2021/08/14 06:53:58;;;;;;;21.97;5.37;;;17.60;99.90;;;;;;5090610;28;20291;-74
2021/08/14 06:56:25;;;;;;;16.77;4.87;;;17.70;99.90;;;;;;5090374;28;20306;-78
2021/08/14 06:58:52;;;;;;;15.93;5.10;;;17.70;99.90;;;;;;5089969;28;20190;-77
2021/08/14 07:01:18;;;;;;;22.80;5.83;;;17.70;99.90;;;;;;5090642;28;20195;-77
2021/08/14 07:03:45;;;;;;;18.13;4.77;;;17.70;99.90;;;;;;5090958;28;20233;-76
2021/08/14 07:06:19;;;;;;;19.63;5.50;;;17.70;99.90;;;;;;5090328;28;20768;-77
2021/08/14 07:08:46;;;;;;;17.47;5.30;;;17.80;99.90;;;;;;5091459;28;20223;-77
2021/08/14 07:11:14;;;;;;;21.63;5.13;;;17.80;99.90;;;;;;5090479;28;20195;-75
2021/08/14 07:13:42;;;;;;;20.07;5.27;;;17.70;99.90;;;;;;5090093;28;20195;-78
2021/08/14 07:16:08;;;;;;;18.00;5.37;;;17.80;99.90;;;;;;5091469;28;20228;-76
2021/08/14 07:18:35;;;;;;;21.20;5.57;;;17.80;99.90;;;;;;5093394;28;20265;-77
2021/08/14 07:21:03;;;;;;;16.57;4.83;;;18.00;99.90;;;;;;5090543;28;20222;-77
2021/08/14 07:23:30;;;;;;;25.83;5.90;;;18.10;99.90;;;;;;5092090;28;20616;-76
2021/08/14 07:25:57;;;;;;;13.57;4.80;;;18.20;99.90;;;;;;5091327;28;20652;-77
2021/08/14 07:28:25;;;;;;;23.20;5.33;;;18.20;99.90;;;;;;5092101;28;20218;-76
2021/08/14 07:30:52;;;;;;;16.30;5.23;;;18.30;99.90;;;;;;5090036;28;20221;-77
2021/08/14 07:33:19;;;;;;;24.00;5.37;;;18.50;99.90;;;;;;5092972;28;20294;-77
2021/08/14 07:35:47;;;;;;;17.47;5.30;;;18.50;99.90;;;;;;5090145;28;20322;-77
2021/08/14 07:38:15;;;;;;;17.70;5.43;;;18.60;99.90;;;;;;5091129;28;20195;-77
2021/08/14 07:40:43;;;;;;;19.60;5.00;;;18.70;99.90;;;;;;5091870;28;20541;-77
2021/08/14 07:43:10;;;;;;;15.90;5.23;;;18.80;99.90;;;;;;5090482;28;20201;-78
2021/08/14 07:45:38;;;;;;;21.43;5.70;;;18.80;99.90;;;;;;5089493;28;20281;-76
2021/08/14 07:48:07;;;;;;;25.30;5.40;;;18.90;99.90;;;;;;5090275;28;20284;-75
2021/08/14 07:50:35;;;;;;;26.17;5.73;;;18.90;99.90;;;;;;5090594;28;20269;-76
2021/08/14 07:53:03;;;;;;;21.97;5.77;;;18.90;99.90;;;;;;5090139;28;20281;-77
2021/08/14 07:55:31;;;;;;;17.37;5.40;;;19.00;99.90;;;;;;5088778;28;20301;-76
2021/08/14 07:57:58;;;;;;;23.10;6.40;;;18.90;99.90;;;;;;5089588;28;20197;-76
2021/08/14 08:00:26;;;;;;;18.37;5.73;;;19.00;99.90;;;;;;5091540;28;20308;-76
2021/08/14 08:02:55;;;;;;;21.17;5.43;;;19.10;99.90;;;;;;5090210;28;20226;-76
2021/08/14 08:05:22;;;;;;;19.83;5.63;;;19.20;99.90;;;;;;5090071;28;20199;-76
2021/08/14 08:07:49;;;;;;;15.57;5.10;;;19.30;99.90;;;;;;5089025;28;20203;-76
2021/08/14 08:10:19;;;;;;;16.17;5.33;;;19.30;99.90;;;;;;5089960;28;20199;-76
2021/08/14 08:12:46;;;;;;;16.17;5.03;;;19.40;99.90;;;;;;5089186;28;20643;-76
2021/08/14 08:15:16;;;;;;;19.27;5.50;;;19.70;99.90;;;;;;5089485;28;20191;-77
2021/08/14 08:17:43;;;;;;;18.20;5.77;;;20.80;99.90;;;;;;5088280;28;20195;-77
2021/08/14 08:20:13;;;;;;;22.93;6.07;;;22.30;99.90;;;;;;5091228;28;20277;-76
2021/08/14 08:22:43;;;;;;;17.25;5.57;;;24.10;99.90;;;;;;5089189;28;20271;-76
2021/08/14 08:25:11;;;;;;;21.85;6.43;;;25.70;99.90;;;;;;5089112;28;20252;-77
2021/08/14 08:27:38;;;;;;;16.30;5.30;;;27.60;99.90;;;;;;5089883;28;20282;-76
2021/08/14 08:30:07;;;;;;;15.18;5.47;;;28.90;99.90;;;;;;5090912;28;20279;-77
2021/08/14 08:32:34;;;;;;;17.10;5.30;;;29.30;99.90;;;;;;5088520;28;20638;-76
2021/08/14 08:35:01;;;;;;;13.90;5.47;;;29.70;99.90;;;;;;5090562;28;20202;-76
2021/08/14 08:37:29;;;;;;;13.60;5.30;;;29.30;99.90;;;;;;5091778;28;20215;-77
2021/08/14 08:39:56;;;;;;;13.32;4.55;;;29.40;99.90;;;;;;5090288;28;20215;-77
2021/08/14 08:42:23;;;;;;;15.18;5.00;;;30.20;99.90;;;;;;5090274;28;20278;-78
2021/08/14 08:44:50;;;;;;;15.18;4.88;;;30.80;99.90;;;;;;5092102;28;20222;-79
2021/08/14 08:47:18;;;;;;;15.10;5.10;;;30.40;99.90;;;;;;5090476;28;20234;-77
2021/08/14 08:49:53;;;;;;;13.35;5.47;;;30.60;99.90;;;;;;5089482;28;20290;-77
2021/08/14 08:52:20;;;;;;;13.70;5.18;;;31.10;99.90;;;;;;5088325;28;20198;-76
2021/08/14 08:54:49;;;;;;;14.93;5.57;;;31.00;99.90;;;;;;5088950;28;20225;-76
2021/08/14 08:57:16;;;;;;;13.43;5.65;;;31.50;99.90;;;;;;5089298;28;20269;-76
2021/08/14 08:59:44;;;;;;;18.02;5.30;;;32.10;99.90;;;;;;5088814;28;20277;-77
2021/08/14 09:02:24;;;;;;;13.48;5.15;;;32.60;99.90;;;;;;5088521;28;20282;-77
2021/08/14 09:05:13;;;;;;;17.13;5.63;;;32.50;99.90;;;;;;5087850;28;20203;-77
2021/08/14 09:07:41;;;;;;;16.48;4.70;;;32.90;99.90;;;;;;5090046;28;20202;-77
2021/08/14 09:10:12;;;;;;;11.38;4.82;;;33.40;99.90;;;;;;5095167;28;20277;-76
2021/08/14 09:12:41;;;;;;;17.70;5.03;;;33.30;99.90;;;;;;5094871;28;21570;-78
2021/08/14 09:15:14;;;;;;;13.45;4.65;;;33.20;99.90;;;;;;5095803;28;20209;-78
2021/08/14 09:17:41;;;;;;;12.68;4.53;;;32.10;99.90;;;;;;5095895;28;20253;-76
2021/08/14 09:20:11;;;;;;;15.15;5.00;;;31.70;99.90;;;;;;5096891;28;20293;-77
2021/08/14 09:22:38;;;;;;;10.43;4.78;;;31.90;99.90;;;;;;5095300;28;20271;-76
2021/08/14 09:25:15;;;;;;;15.48;5.63;;;32.10;99.90;;;;;;5095412;28;20225;-76
2021/08/14 09:27:57;;;;;;;14.57;5.00;;;32.10;99.90;;;;;;5095056;28;20230;-75
2021/08/14 09:30:48;;;;;;;16.17;5.13;;;31.70;99.90;;;;;;5093633;28;20980;-78
2021/08/14 09:33:19;;;;;;;14.38;4.82;;;31.40;99.90;;;;;;5096639;28;20260;-77
2021/08/14 09:35:47;;;;;;;13.20;5.05;;;32.30;99.90;;;;;;5094841;28;20344;-75
2021/08/14 09:38:15;;;;;;;12.10;4.55;;;32.60;99.90;;;;;;5095378;28;20199;-77
2021/08/14 09:40:45;;;;;;;14.80;4.93;;;33.00;99.90;;;;;;5095401;28;20289;-76
2021/08/14 09:43:13;;;;;;;11.30;4.40;;;32.90;99.90;;;;;;5096313;28;20542;-78
2021/08/14 09:45:53;;;;;;;14.07;5.25;;;32.80;99.90;;;;;;5096275;28;20234;-75
2021/08/14 09:48:22;;;;;;;12.60;4.90;;;32.80;99.90;;;;;;5096501;28;20554;-76
2021/08/14 09:50:49;;;;;;;13.88;4.90;;;33.00;99.90;;;;;;5096646;28;20297;-74
2021/08/14 09:53:18;;;;;;;11.07;4.18;;;33.00;99.90;;;;;;5096324;28;20286;-75
2021/08/14 09:55:50;;;;;;;11.18;4.85;;;33.60;99.90;;;;;;5096082;28;20680;-77
2021/08/14 09:58:20;;;;;;;12.88;4.80;;;33.90;99.90;;;;;;5095972;28;20721;-75
2021/08/14 10:00:48;;;;;;;15.25;5.07;;;34.10;99.90;;;;;;5095916;28;20610;-77
2021/08/14 10:03:16;;;;;;;10.77;4.85;;;34.20;99.90;;;;;;5096080;28;20201;-77
2021/08/14 10:05:45;;;;;;;13.27;4.45;;;34.20;99.90;;;;;;5096015;28;20201;-76
2021/08/14 10:08:12;;;;;;;11.02;4.63;;;34.20;99.90;;;;;;5095761;28;20194;-75
2021/08/14 10:10:39;;;;;;;13.77;4.63;;;33.80;99.90;;;;;;5095886;28;20226;-74
2021/08/14 10:13:07;;;;;;;14.90;4.82;;;33.20;99.90;;;;;;5095631;28;20191;-76
2021/08/14 10:15:35;;;;;;;12.55;4.70;;;33.40;99.90;;;;;;5095602;28;20226;-76
2021/08/14 10:18:03;;;;;;;13.43;4.80;;;33.50;99.90;;;;;;5095316;28;20309;-75
2021/08/14 10:20:30;;;;;;;17.33;4.50;;;33.30;99.90;;;;;;5095084;28;20198;-76
2021/08/14 10:23:00;;;;;;;15.93;4.57;;;33.30;99.90;;;;;;5095588;28;20302;-76
2021/08/14 10:25:27;;;;;;;12.13;4.32;;;32.70;99.90;;;;;;5095385;28;20657;-76
2021/08/14 10:27:57;;;;;;;12.05;4.72;;;33.50;99.90;;;;;;5095489;28;20622;-77
2021/08/14 10:30:40;;;;;;;11.13;4.35;;;33.00;99.90;;;;;;5095716;28;20205;-75
2021/08/14 10:33:08;;;;;;;12.52;4.18;;;33.20;99.90;;;;;;5095318;28;20290;-77
2021/08/14 10:35:37;;;;;;;12.27;4.47;;;33.30;99.90;;;;;;5095440;28;20644;-78
2021/08/14 10:38:05;;;;;;;11.40;4.10;;;33.40;99.90;;;;;;5095306;28;20310;-76
2021/08/14 10:41:00;;;;;;;12.05;4.70;;;33.30;99.90;;;;;;5096747;28;20282;-79
2021/08/14 10:44:01;;;;;;;13.73;4.60;;;33.10;99.90;;;;;;5090671;28;20281;-76
2021/08/14 10:46:45;;;;;;;16.30;5.30;;;33.40;99.90;;;;;;5091012;28;20194;-77
2021/08/14 10:49:13;;;;;;;14.43;4.70;;;33.30;99.90;;;;;;5094122;28;20206;-76
2021/08/14 10:52:14;;;;;;;13.18;4.80;;;33.00;99.90;;;;;;5095149;28;20214;-77
2021/08/14 10:55:02;;;;;;;11.15;4.25;;;33.20;99.90;;;;;;5084446;28;20289;-78
2021/08/14 10:57:38;;;;;;;13.63;4.07;;;33.80;99.90;;;;;;5094686;28;20589;-76
2021/08/14 11:00:06;;;;;;;15.20;4.45;;;33.80;99.90;;;;;;5094076;28;20282;-75
2021/08/14 11:02:35;;;;;;;11.45;4.70;;;34.20;99.90;;;;;;5094285;28;20195;-77
2021/08/14 11:05:02;;;;;;;9.82;4.28;;;34.40;99.90;;;;;;5094553;28;20225;-76
2021/08/14 11:07:33;;;;;;;14.82;4.80;;;34.40;99.90;;;;;;5094419;28;20644;-75
2021/08/14 11:10:11;;;;;;;12.60;4.40;;;34.20;99.90;;;;;;5093548;28;20203;-75
2021/08/14 11:12:41;;;;;;;11.75;4.43;;;33.60;99.90;;;;;;5091739;28;20615;-77
2021/08/14 11:15:16;;;;;;;11.00;4.80;;;33.50;99.90;;;;;;5094013;28;20553;-78
2021/08/14 11:17:45;;;;;;;12.25;4.32;;;33.50;99.90;;;;;;5093201;28;20310;-77
2021/08/14 11:20:31;;;;;;;10.65;4.57;;;33.60;99.90;;;;;;5085634;28;20206;-77
2021/08/14 11:22:59;;;;;;;10.15;4.40;;;33.80;99.90;;;;;;5092893;28;20199;-76
2021/08/14 11:25:27;;;;;;;14.40;4.30;;;34.00;99.90;;;;;;5093829;28;20545;-76
2021/08/14 11:27:56;;;;;;;11.02;4.60;;;34.20;99.90;;;;;;5093609;28;20656;-74
2021/08/14 11:30:24;;;;;;;10.43;4.45;;;33.90;99.90;;;;;;5092501;28;20191;-75
2021/08/14 11:32:53;;;;;;;12.02;4.90;;;33.60;99.90;;;;;;5092719;28;20606;-75
2021/08/14 11:35:21;;;;;;;9.48;4.70;;;33.20;99.90;;;;;;5094114;28;20238;-75
2021/08/14 11:37:50;;;;;;;9.55;4.97;;;32.80;99.90;;;;;;5094162;28;20314;-74
2021/08/14 11:40:21;;;;;;;13.90;5.55;;;32.90;99.90;;;;;;5093914;28;20301;-76
2021/08/14 11:42:55;;;;;;;9.43;4.97;;;32.70;99.90;;;;;;5094089;28;20198;-76
2021/08/14 11:45:22;;;;;;;16.00;5.03;;;32.80;99.90;;;;;;5094129;28;20292;-76
2021/08/14 11:47:58;;;;;;;11.98;5.43;;;32.80;99.90;;;;;;5092716;28;20190;-75
2021/08/14 11:50:32;;;;;;;15.48;5.63;;;32.90;99.90;;;;;;5093936;28;20278;-78
2021/08/14 11:52:59;;;;;;;12.77;5.40;;;32.90;99.90;;;;;;5090971;28;20233;-80
2021/08/14 11:55:26;;;;;;;10.00;4.93;;;32.70;99.90;;;;;;5092041;28;20192;-75
2021/08/14 11:57:52;;;;;;;10.85;5.65;;;32.40;99.90;;;;;;5094845;28;20226;-76
2021/08/14 12:00:28;;;;;;;13.00;5.22;;;32.70;99.90;;;;;;5093223;28;20586;-75
2021/08/14 12:03:08;;;;;;;15.23;5.15;;;32.10;99.90;;;;;;5093364;28;20285;-74
2021/08/14 12:05:35;;;;;;;10.25;4.82;;;32.30;99.90;;;;;;5093715;28;20274;-76
2021/08/14 12:08:03;;;;;;;11.13;5.20;;;32.00;99.90;;;;;;5093795;28;20292;-76
2021/08/14 12:10:31;;;;;;;11.45;5.32;;;32.00;99.90;;;;;;5092691;28;20195;-77
2021/08/14 12:12:59;;;;;;;15.52;5.82;;;32.10;99.90;;;;;;5093295;28;20191;-77
2021/08/14 12:15:37;;;;;;;11.77;5.28;;;32.00;99.90;;;;;;5093424;28;20198;-78
2021/08/14 12:18:06;;;;;;;9.73;5.28;;;32.50;99.90;;;;;;5093214;28;20313;-76
2021/08/14 12:20:35;;;;;;;12.10;5.10;;;32.50;99.90;;;;;;5093710;28;20199;-76
2021/08/14 12:23:23;;;;;;;12.82;4.93;;;32.50;99.90;;;;;;5093220;28;20290;-76
2021/08/14 12:25:51;;;;;;;12.90;5.43;;;31.90;99.90;;;;;;5093214;28;20695;-74
2021/08/14 12:28:18;;;;;;;14.93;5.40;;;31.60;99.90;;;;;;5093264;28;20676;-76
2021/08/14 12:30:45;;;;;;;12.45;4.93;;;31.70;99.90;;;;;;5093277;28;20708;-75
2021/08/14 12:33:27;;;;;;;13.18;5.85;;;31.70;99.90;;;;;;5093403;28;20213;-75
2021/08/14 12:35:59;;;;;;;12.40;5.18;;;31.30;99.90;;;;;;5093339;28;20198;-75
2021/08/14 12:38:26;;;;;;;11.43;4.93;;;31.10;99.90;;;;;;5092994;28;20303;-75
2021/08/14 12:40:53;;;;;;;9.95;5.47;;;31.20;99.90;;;;;;5093039;28;20294;-77
2021/08/14 12:43:21;;;;;;;9.40;5.32;;;31.20;99.90;;;;;;5091902;28;20285;-76
2021/08/14 12:45:48;;;;;;;13.23;5.53;;;31.50;99.90;;;;;;5093696;28;20542;-76